Time;durP1;ratioP1;P1;durP2;ratioP2;P2;SDS_P1;SDS_P2;PMS_P1;PMS_P2;Temp;Humidity;BMP_temperature;BMP_pressure;BME280_temperature;BME280_humidity;BME280_pressure;Samples;Min_cycle;Max_cycle;Signal;HPM_P1;HPM_P2
2022/09/12 08:27:17;;;;;;;0.40;0.40;;;;;;;-143.85;100.00;70650.75;5123208;27;20400;-74
2022/09/12 08:29:42;;;;;;;2.17;1.10;;;;;;;-143.85;100.00;70650.75;5089433;28;20043;-73
2022/09/12 08:32:08;;;;;;;0.55;0.30;;;;;;;-143.85;100.00;70650.75;5081003;28;20032;-79
2022/09/12 08:34:33;;;;;;;0.40;0.40;;;;;;;-143.85;100.00;70650.75;5085254;28;20023;-76
2022/09/12 08:36:59;;;;;;;0.30;0.30;;;;;;;-143.85;100.00;70650.75;5095387;28;20040;-75
2022/09/12 08:39:24;;;;;;;0.30;0.30;;;;;;;-143.85;100.00;70650.75;5086181;28;20032;-74
2022/09/12 08:42:05;;;;;;;0.22;0.22;;;;;;;-143.85;100.00;70650.75;5093151;28;20031;-76
2022/09/12 08:44:37;;;;;;;0.22;0.22;;;;;;;-143.85;100.00;70650.75;5089751;28;20457;-75
2022/09/12 08:47:02;;;;;;;0.40;0.40;;;;;;;-143.85;100.00;70650.75;5093514;28;20121;-76
2022/09/12 08:49:43;;;;;;;0.75;0.50;;;;;;;-143.85;100.00;70650.75;5090920;28;20051;-78
2022/09/12 08:52:20;;;;;;;0.47;0.47;;;;;;;-143.85;100.00;70650.75;5091854;28;20128;-73
2022/09/12 08:54:46;;;;;;;0.50;0.50;;;;;;;-143.85;100.00;70650.75;5091058;28;20020;-79
2022/09/12 08:57:13;;;;;;;0.60;0.60;;;;;;;-143.85;100.00;70650.75;5091503;28;20024;-79
2022/09/12 08:59:44;;;;;;;0.57;0.50;;;;;;;-143.85;100.00;70650.75;5091192;28;20036;-75
2022/09/12 09:02:41;;;;;;;0.60;0.40;;;;;;;-143.85;100.00;70650.75;5084392;28;20028;-78
2022/09/12 09:05:48;;;;;;;0.50;0.50;;;;;;;-143.85;100.00;70650.75;5071265;28;20029;-78
2022/09/12 09:08:26;;;;;;;0.70;0.60;;;;;;;-143.85;100.00;70650.75;5074563;28;20040;-73
2022/09/12 09:11:41;;;;;;;0.70;0.70;;;;;;;-143.85;100.00;70650.75;5079528;28;20040;-77
2022/09/12 09:14:47;;;;;;;0.68;0.50;;;;;;;-143.85;100.00;70650.75;5054409;28;20036;-75
2022/09/12 09:17:24;;;;;;;0.40;0.40;;;;;;;-143.85;100.00;70650.75;5091702;28;20186;-74
2022/09/12 09:19:58;;;;;;;1.10;0.60;;;;;;;-143.85;100.00;70650.75;5090262;28;20047;-77
2022/09/12 09:22:42;;;;;;;0.40;0.40;;;;;;;-143.85;100.00;70650.75;5089327;28;20105;-75
2022/09/12 09:25:39;;;;;;;0.60;0.60;;;;;;;-143.85;100.00;70650.75;5108490;28;20036;-74
2022/09/12 09:28:15;;;;;;;0.50;0.50;;;;;;;-143.85;100.00;70650.75;5083207;28;20130;-74
2022/09/12 09:30:42;;;;;;;0.77;0.60;;;;;;;-143.85;100.00;70650.75;5087377;28;20077;-74
2022/09/12 09:33:17;;;;;;;0.60;0.60;;;;;;;-143.85;100.00;70650.75;5071160;28;20029;-75
2022/09/12 09:35:45;;;;;;;0.30;0.30;;;;;;;-143.85;100.00;70650.75;5090173;28;20032;-75
2022/09/12 09:38:38;;;;;;;0.75;0.50;;;;;;;-143.85;100.00;70650.75;5069115;28;20028;-75
2022/09/12 09:41:19;;;;;;;0.47;0.47;;;;;;;-143.85;100.00;70650.75;5075660;28;20035;-78
2022/09/12 09:43:45;;;;;;;0.60;0.60;;;;;;;-143.85;100.00;70650.75;5059057;28;20028;-76
2022/09/12 09:46:12;;;;;;;0.88;0.70;;;;;;;-143.85;100.00;70650.75;5057555;28;20021;-76
2022/09/12 09:48:44;;;;;;;0.40;0.40;;;;;;;-143.85;100.00;70650.75;5072843;28;20064;-73
2022/09/12 09:51:10;;;;;;;0.43;0.30;;;;;;;-143.85;100.00;70650.75;5076904;28;20028;-76
2022/09/12 09:53:54;;;;;;;0.63;0.63;;;;;;;-143.85;100.00;70650.75;5076944;28;20116;-74
2022/09/12 09:56:33;;;;;;;2.00;0.60;;;;;;;-143.85;100.00;70650.75;5077297;28;20027;-76
2022/09/12 09:59:15;;;;;;;1.48;0.85;;;;;;;-143.85;100.00;70650.75;5077458;28;20059;-74
2022/09/12 10:01:50;;;;;;;0.30;0.30;;;;;;;-143.85;100.00;70650.75;5077390;28;20118;-74
2022/09/12 10:04:18;;;;;;;0.57;0.45;;;;;;;-143.85;100.00;70650.75;5077449;28;20519;-74
2022/09/12 10:06:44;;;;;;;0.50;0.50;;;;;;;-143.85;100.00;70650.75;5077181;28;20024;-74
2022/09/12 10:09:32;;;;;;;0.60;0.60;;;;;;;-143.85;100.00;70650.75;5078150;28;20024;-73
2022/09/12 10:12:00;;;;;;;0.55;0.40;;;;;;;-143.85;100.00;70650.75;5078840;28;20024;-73
2022/09/12 10:14:36;;;;;;;0.40;0.40;;;;;;;-143.85;100.00;70650.75;5077396;28;20032;-74
2022/09/12 10:17:23;;;;;;;0.45;0.45;;;;;;;-143.85;100.00;70650.75;5076847;28;20081;-73
2022/09/12 10:19:48;;;;;;;0.60;0.60;;;;;;;-143.85;100.00;70650.75;5076823;28;20028;-73
2022/09/12 10:22:20;;;;;;;0.38;0.38;;;;;;;-143.85;100.00;70650.75;5076840;28;20051;-73
2022/09/12 10:24:51;;;;;;;0.57;0.50;;;;;;;-143.85;100.00;70650.75;5076885;28;20060;-76
2022/09/12 10:27:42;;;;;;;0.28;0.28;;;;;;;-143.85;100.00;70650.75;5077558;28;20123;-75
2022/09/12 10:30:19;;;;;;;0.38;0.38;;;;;;;-143.85;100.00;70650.75;5072081;28;20040;-75
2022/09/12 10:32:49;;;;;;;0.40;0.40;;;;;;;-143.85;100.00;70650.75;5077129;28;20545;-74
2022/09/12 10:35:21;;;;;;;0.93;0.60;;;;;;;-143.85;100.00;70650.75;5076702;28;20166;-74
2022/09/12 10:38:01;;;;;;;1.55;0.85;;;;;;;-143.85;100.00;70650.75;5076698;28;20114;-74
2022/09/12 10:40:36;;;;;;;0.50;0.50;;;;;;;-143.85;100.00;70650.75;5076453;28;20024;-73
2022/09/12 10:43:16;;;;;;;0.40;0.40;;;;;;;-143.85;100.00;70650.75;5076726;28;20024;-73
2022/09/12 10:45:41;;;;;;;0.47;0.40;;;;;;;-143.85;100.00;70650.75;5076362;28;20028;-73
2022/09/12 10:48:34;;;;;;;0.77;0.60;;;;;;;-143.85;100.00;70650.75;5076271;28;20502;-73
2022/09/12 10:51:00;;;;;;;0.50;0.50;;;;;;;-143.85;100.00;70650.75;5072307;28;20145;-76
2022/09/12 10:53:30;;;;;;;1.50;0.77;;;;;;;-143.85;100.00;70650.75;5076550;28;20028;-74
2022/09/12 10:56:12;;;;;;;0.57;0.55;;;;;;;-143.85;100.00;70650.75;5076364;28;20028;-76
2022/09/12 10:59:15;;;;;;;0.20;0.20;;;;;;;-143.85;100.00;70650.75;5080534;28;20035;-76
2022/09/12 11:01:47;;;;;;;0.57;0.57;;;;;;;-143.85;100.00;70650.75;5076360;28;20027;-75
2022/09/12 11:04:25;;;;;;;0.40;0.40;;;;;;;-143.85;100.00;70650.75;5076204;28;20039;-74
2022/09/12 11:07:12;;;;;;;0.45;0.45;;;;;;;-143.85;100.00;70650.75;5076160;28;20031;-74
2022/09/12 11:09:40;;;;;;;0.40;0.40;;;;;;;-143.85;100.00;70650.75;5075677;28;20038;-74
2022/09/12 11:12:08;;;;;;;0.50;0.50;;;;;;;-143.85;100.00;70650.75;5075937;28;20110;-74
2022/09/12 11:14:58;;;;;;;1.80;0.40;;;;;;;-143.85;100.00;70650.75;5075562;28;20020;-73
2022/09/12 11:17:55;;;;;;;0.38;0.38;;;;;;;-143.85;100.00;70650.75;5075556;28;20028;-75
2022/09/12 11:20:34;;;;;;;0.40;0.40;;;;;;;-143.85;100.00;70650.75;5075636;28;20089;-75
2022/09/12 11:23:24;;;;;;;0.35;0.30;;;;;;;-143.85;100.00;70650.75;5075763;28;20132;-73
2022/09/12 11:26:08;;;;;;;1.35;0.50;;;;;;;-143.85;100.00;70650.75;5075509;28;20607;-75
2022/09/12 11:28:51;;;;;;;0.40;0.40;;;;;;;-143.85;100.00;70650.75;5075704;28;20032;-74
2022/09/12 11:31:41;;;;;;;0.65;0.50;;;;;;;-143.85;100.00;70650.75;5076073;28;20052;-75
2022/09/12 11:34:09;;;;;;;5.00;0.75;;;;;;;-143.85;100.00;70650.75;5075525;28;20024;-75
2022/09/12 11:36:49;;;;;;;0.30;0.30;;;;;;;-143.85;100.00;70650.75;5075674;28;20032;-74
2022/09/12 11:39:18;;;;;;;0.98;0.98;;;;;;;-143.85;100.00;70650.75;5075782;28;20123;-75
2022/09/12 11:41:51;;;;;;;0.60;0.60;;;;;;;-143.85;100.00;70650.75;5075538;28;20050;-75
2022/09/12 11:44:39;;;;;;;0.50;0.50;;;;;;;-143.85;100.00;70650.75;5075611;28;20061;-73
2022/09/12 11:47:09;;;;;;;0.50;0.50;;;;;;;-143.85;100.00;70650.75;5075254;28;20035;-75
2022/09/12 11:49:40;;;;;;;0.55;0.55;;;;;;;-143.85;100.00;70650.75;5075751;28;20050;-75
2022/09/12 11:52:28;;;;;;;0.98;0.75;;;;;;;-143.85;100.00;70650.75;5075815;28;20495;-73
2022/09/12 11:55:04;;;;;;;0.50;0.50;;;;;;;-143.85;100.00;70650.75;5075095;28;20032;-76
2022/09/12 11:57:40;;;;;;;1.85;0.90;;;;;;;-143.85;100.00;70650.75;5075190;28;20028;-74
2022/09/12 12:00:16;;;;;;;0.50;0.50;;;;;;;-143.85;100.00;70650.75;5075119;28;20395;-76
2022/09/12 12:03:17;;;;;;;0.82;0.80;;;;;;;-143.85;100.00;70650.75;5075511;28;20111;-73
2022/09/12 12:06:26;;;;;;;0.85;0.75;;;;;;;-143.85;100.00;70650.75;5093273;28;20106;-73
2022/09/12 12:08:52;;;;;;;0.60;0.60;;;;;;;-143.85;100.00;70650.75;5070030;28;20385;-78
2022/09/12 12:11:32;;;;;;;0.73;0.73;;;;;;;-143.85;100.00;70650.75;5092973;28;20024;-74
2022/09/12 12:14:23;;;;;;;1.10;1.00;;;;;;;-143.85;100.00;70650.75;5075180;28;20028;-74
2022/09/12 12:16:49;;;;;;;1.02;0.85;;;;;;;-143.85;100.00;70650.75;5074909;28;20404;-74
2022/09/12 12:19:15;;;;;;;1.40;0.60;;;;;;;-143.85;100.00;70650.75;5093012;28;20096;-77
2022/09/12 12:21:51;;;;;;;0.50;0.50;;;;;;;-143.85;100.00;70650.75;5074898;28;20482;-73
2022/09/12 12:24:22;;;;;;;0.77;0.77;;;;;;;-143.85;100.00;70650.75;5074882;28;20028;-74
2022/09/12 12:27:00;;;;;;;0.65;0.60;;;;;;;-143.85;100.00;70650.75;5074100;28;20044;-74
2022/09/12 12:29:44;;;;;;;0.90;0.80;;;;;;;-143.85;100.00;70650.75;5074780;28;20024;-75
2022/09/12 12:32:10;;;;;;;1.13;1.00;;;;;;;-143.85;100.00;70650.75;5075038;28;20035;-75
2022/09/12 12:34:36;;;;;;;0.63;0.60;;;;;;;-143.85;100.00;70650.75;5074638;28;20407;-76
2022/09/12 12:37:20;;;;;;;1.80;0.80;;;;;;;-143.85;100.00;70650.75;5074478;28;20403;-75
2022/09/12 12:39:49;;;;;;;0.95;0.77;;;;;;;-143.85;100.00;70650.75;5074487;28;20028;-73
2022/09/12 12:42:33;;;;;;;0.65;0.55;;;;;;;-143.85;100.00;70650.75;5075005;28;20058;-73
2022/09/12 12:45:00;;;;;;;0.82;0.82;;;;;;;-143.85;100.00;70650.75;5075079;28;20032;-75
2022/09/12 12:47:33;;;;;;;1.02;0.93;;;;;;;-143.85;100.00;70650.75;5074792;28;20381;-75
2022/09/12 12:50:04;;;;;;;0.90;0.90;;;;;;;-143.85;100.00;70650.75;5074209;28;20030;-74
2022/09/12 12:52:47;;;;;;;1.08;0.98;;;;;;;-143.85;100.00;70650.75;5074472;28;20032;-73
2022/09/12 12:55:19;;;;;;;3.08;1.67;;;;;;;-143.85;100.00;70650.75;5075095;28;20063;-73
2022/09/12 12:57:52;;;;;;;1.00;0.93;;;;;;;-143.85;100.00;70650.75;5074345;28;20460;-76
2022/09/12 13:00:24;;;;;;;0.82;0.82;;;;;;;-143.85;100.00;70650.75;5074594;28;20020;-75
2022/09/12 13:02:59;;;;;;;1.23;0.80;;;;;;;-143.85;100.00;70650.75;5074975;28;20081;-74
2022/09/12 13:05:28;;;;;;;1.20;1.17;;;;;;;-143.85;100.00;70650.75;5074205;28;20059;-74
2022/09/12 13:07:59;;;;;;;0.98;0.90;;;;;;;-143.85;100.00;70650.75;5074366;28;20024;-76
2022/09/12 13:10:28;;;;;;;1.80;1.08;;;;;;;-143.85;100.00;70650.75;5092418;28;20066;-75
2022/09/12 13:12:57;;;;;;;4.18;0.82;;;;;;;-143.85;100.00;70650.75;5076063;28;20024;-75
2022/09/12 13:15:34;;;;;;;1.17;0.90;;;;;;;-143.85;100.00;70650.75;5077978;28;20051;-75
2022/09/12 13:18:13;;;;;;;1.38;0.98;;;;;;;-143.85;100.00;70650.75;5078008;28;20024;-75
2022/09/12 13:21:06;;;;;;;1.05;0.95;;;;;;;-143.85;100.00;70650.75;5077978;28;20131;-75
2022/09/12 13:23:32;;;;;;;1.02;0.90;;;;;;;-143.85;100.00;70650.75;5078401;28;20116;-73
2022/09/12 13:25:59;;;;;;;1.40;0.98;;;;;;;-143.85;100.00;70650.75;5077162;28;20500;-75
2022/09/12 13:28:27;;;;;;;1.40;1.30;;;;;;;-143.85;100.00;70650.75;5079207;28;20016;-75
2022/09/12 13:31:20;;;;;;;1.67;1.00;;;;;;;-143.85;100.00;70650.75;5077719;28;20160;-76
2022/09/12 13:33:56;;;;;;;1.00;0.90;;;;;;;-143.85;100.00;70650.75;5095927;28;20028;-74
2022/09/12 13:36:44;;;;;;;1.05;0.95;;;;;;;-143.85;100.00;70650.75;5077653;28;20074;-76
2022/09/12 13:39:19;;;;;;;1.20;0.77;;;;;;;-143.85;100.00;70650.75;5077407;28;20024;-80
2022/09/12 13:42:03;;;;;;;1.05;0.93;;;;;;;-143.85;100.00;70650.75;5077474;28;20036;-74
2022/09/12 13:44:30;;;;;;;1.23;1.13;;;;;;;-143.85;100.00;70650.75;5078098;28;20106;-73
2022/09/12 13:47:00;;;;;;;1.73;1.60;;;;;;;-143.85;100.00;70650.75;5077232;28;20412;-74
2022/09/12 13:49:37;;;;;;;0.95;0.95;;;;;;;-143.85;100.00;70650.75;5077252;28;20107;-76
2022/09/12 13:52:25;;;;;;;1.55;1.00;;;;;;;-143.85;100.00;70650.75;5077420;28;20476;-80
2022/09/12 13:54:53;;;;;;;;;;;;;;;-143.85;100.00;70650.75;5078082;28;20449;-74
2022/09/12 13:57:36;;;;;;;1.02;1.00;;;;;;;-143.85;100.00;70650.75;5077164;28;19908;-73
2022/09/12 14:00:07;;;;;;;1.27;1.05;;;;;;;-143.85;100.00;70650.75;5095387;28;20553;-73
2022/09/12 14:02:35;;;;;;;1.70;1.45;;;;;;;-143.85;100.00;70650.75;5082398;28;20074;-74
2022/09/12 14:05:10;;;;;;;1.20;1.10;;;;;;;-143.85;100.00;70650.75;5057104;28;20040;-73
2022/09/12 14:07:58;;;;;;;0.70;0.70;;;;;;;-143.85;100.00;70650.75;5057693;28;20045;-74
2022/09/12 14:10:31;;;;;;;1.27;1.00;;;;;;;-143.85;100.00;70650.75;5057282;28;20477;-73
2022/09/12 14:13:04;;;;;;;1.00;0.93;;;;;;;-143.85;100.00;70650.75;5057631;28;20024;-74
2022/09/12 14:15:32;;;;;;;0.95;0.85;;;;;;;-143.85;100.00;70650.75;5075822;28;20064;-75
2022/09/12 14:18:02;;;;;;;1.35;1.10;;;;;;;-143.85;100.00;70650.75;5071400;28;20021;-77
2022/09/12 14:20:35;;;;;;;1.30;1.20;;;;;;;-143.85;100.00;70650.75;5076655;28;20036;-77
2022/09/12 14:23:22;;;;;;;1.15;1.05;;;;;;;-143.85;100.00;70650.75;5056540;28;20043;-79
2022/09/12 14:25:48;;;;;;;0.85;0.85;;;;;;;-143.85;100.00;70650.75;5055421;28;20056;-75
2022/09/12 14:28:19;;;;;;;1.30;1.20;;;;;;;-143.85;100.00;70650.75;5056218;28;20021;-73
2022/09/12 14:31:17;;;;;;;1.00;0.95;;;;;;;-143.85;100.00;70650.75;5056797;28;20021;-80
2022/09/12 14:33:51;;;;;;;1.17;1.08;;;;;;;-143.85;100.00;70650.75;5056590;28;20024;-78
2022/09/12 14:36:28;;;;;;;1.45;1.08;;;;;;;-143.85;100.00;70650.75;5056657;28;20025;-79
2022/09/12 14:39:01;;;;;;;1.38;1.27;;;;;;;-143.85;100.00;70650.75;5056510;28;20140;-74
2022/09/12 14:41:31;;;;;;;1.40;1.30;;;;;;;-143.85;100.00;70650.75;5056574;28;20037;-74
2022/09/12 14:44:04;;;;;;;1.10;1.00;;;;;;;-143.85;100.00;70650.75;5056235;28;20408;-75
2022/09/12 14:46:33;;;;;;;1.38;1.13;;;;;;;-143.85;100.00;70650.75;5056346;28;20035;-78
2022/09/12 14:49:06;;;;;;;2.05;1.45;;;;;;;-143.85;100.00;70650.75;5056229;28;20093;-76
2022/09/12 14:51:36;;;;;;;1.20;1.10;;;;;;;-143.85;100.00;70650.75;5056612;28;20055;-79
2022/09/12 14:54:02;;;;;;;2.22;1.67;;;;;;;-143.85;100.00;70650.75;5056081;28;20064;-79
2022/09/12 14:56:43;;;;;;;1.05;0.98;;;;;;;-143.85;100.00;70650.75;5056240;28;20070;-74
2022/09/12 14:59:36;;;;;;;1.60;1.45;;;;;;;-143.85;100.00;70650.75;5056522;28;20361;-76
2022/09/12 15:02:21;;;;;;;1.55;1.33;;;;;;;-143.85;100.00;70650.75;5056180;28;20029;-76
2022/09/12 15:05:14;;;;;;;12.98;1.63;;;;;;;-143.85;100.00;70650.75;5056009;28;20392;-80
2022/09/12 15:07:57;;;;;;;1.10;1.00;;;;;;;-143.85;100.00;70650.75;5055687;28;20035;-74
2022/09/12 15:10:49;;;;;;;1.92;1.30;;;;;;;-143.85;100.00;70650.75;5055666;28;20021;-76
2022/09/12 15:13:18;;;;;;;8.68;2.42;;;;;;;-143.85;100.00;70650.75;5051923;28;20097;-74
2022/09/12 15:15:57;;;;;;;1.48;1.35;;;;;;;-143.85;100.00;70650.75;5055656;28;20507;-74
2022/09/12 15:18:28;;;;;;;6.35;1.80;;;;;;;-143.85;100.00;70650.75;5055502;28;20029;-76
2022/09/12 15:21:20;;;;;;;2.22;1.30;;;;;;;-143.85;100.00;70650.75;5055790;28;20492;-76
2022/09/12 15:23:47;;;;;;;1.40;1.10;;;;;;;-143.85;100.00;70650.75;5051452;28;20045;-73
2022/09/12 15:26:19;;;;;;;1.60;1.30;;;;;;;-143.85;100.00;70650.75;5055603;28;20143;-73
2022/09/12 15:28:45;;;;;;;2.67;1.27;;;;;;;-143.85;100.00;70650.75;5055630;28;20024;-73
2022/09/12 15:31:31;;;;;;;1.20;1.10;;;;;;;-143.85;100.00;70650.75;5055424;28;20107;-74
2022/09/12 15:34:01;;;;;;;1.70;1.25;;;;;;;-143.85;100.00;70650.75;5056062;28;20025;-76
2022/09/12 15:36:28;;;;;;;4.30;1.30;;;;;;;-143.85;100.00;70650.75;5058005;28;20498;-75
2022/09/12 15:38:54;;;;;;;1.85;1.25;;;;;;;-143.85;100.00;70650.75;5055938;28;20032;-75
2022/09/12 15:41:35;;;;;;;1.98;1.77;;;;;;;-143.85;100.00;70650.75;5055363;28;20037;-75
2022/09/12 15:44:03;;;;;;;2.22;1.92;;;;;;;-143.85;100.00;70650.75;5055947;28;20036;-75
2022/09/12 15:46:29;;;;;;;1.95;1.55;;;;;;;-143.85;100.00;70650.75;5055083;28;20404;-75
2022/09/12 15:48:55;;;;;;;1.25;1.15;;;;;;;-143.85;100.00;70650.75;5054911;28;20020;-73
2022/09/12 15:51:21;;;;;;;1.58;1.45;;;;;;;-143.85;100.00;70650.75;5055189;28;20157;-73
2022/09/12 15:53:48;;;;;;;1.50;1.38;;;;;;;-143.85;100.00;70650.75;5054986;28;20035;-74
2022/09/12 15:56:15;;;;;;;1.15;1.02;;;;;;;-143.85;100.00;70650.75;5055286;28;20064;-75
2022/09/12 15:58:41;;;;;;;1.45;1.08;;;;;;;-143.85;100.00;70650.75;5072788;28;20020;-73
2022/09/12 16:01:10;;;;;;;2.88;1.33;;;;;;;-143.85;100.00;70650.75;5054645;28;20036;-74
2022/09/12 16:03:36;;;;;;;1.13;1.02;;;;;;;-143.85;100.00;70650.75;5055119;28;20097;-74
2022/09/12 16:06:02;;;;;;;3.25;1.30;;;;;;;-143.85;100.00;70650.75;5054695;28;20492;-77
2022/09/12 16:08:33;;;;;;;3.05;1.50;;;;;;;-143.85;100.00;70650.75;5056009;28;20032;-75
2022/09/12 16:11:06;;;;;;;1.25;1.20;;;;;;;-143.85;100.00;70650.75;5055028;28;20540;-75
2022/09/12 16:13:32;;;;;;;1.20;1.10;;;;;;;-143.85;100.00;70650.75;5054735;28;20043;-74
2022/09/12 16:15:59;;;;;;;1.92;1.45;;;;;;;-143.85;100.00;70650.75;5054604;28;20484;-76
2022/09/12 16:18:26;;;;;;;1.65;1.55;;;;;;;-143.85;100.00;70650.75;5054665;28;20025;-75
2022/09/12 16:20:56;;;;;;;1.67;1.58;;;;;;;-143.85;100.00;70650.75;5054610;28;20127;-74
2022/09/12 16:23:22;;;;;;;1.52;1.42;;;;;;;-143.85;100.00;70650.75;5054985;28;20507;-76
2022/09/12 16:26:01;;;;;;;4.65;1.05;;;;;;;-143.85;100.00;70650.75;5054356;28;20492;-74
2022/09/12 16:28:27;;;;;;;1.13;1.02;;;;;;;-143.85;100.00;70650.75;5054572;28;20020;-73
2022/09/12 16:31:02;;;;;;;0.82;0.82;;;;;;;-143.85;100.00;70650.75;5055031;28;20391;-76
2022/09/12 16:33:28;;;;;;;2.10;1.00;;;;;;;-143.85;100.00;70650.75;5055006;28;20021;-77
2022/09/12 16:36:03;;;;;;;1.08;0.98;;;;;;;-143.85;100.00;70650.75;5054653;28;20102;-75
2022/09/12 16:38:30;;;;;;;1.10;1.10;;;;;;;-143.85;100.00;70650.75;5054620;28;20021;-78
2022/09/12 16:41:00;;;;;;;1.30;1.20;;;;;;;-143.85;100.00;70650.75;5054429;28;20439;-82
2022/09/12 16:43:26;;;;;;;1.50;1.40;;;;;;;-143.85;100.00;70650.75;5054651;28;20111;-78
2022/09/12 16:46:02;;;;;;;1.27;1.17;;;;;;;-143.85;100.00;70650.75;5055036;28;20116;-79
2022/09/12 16:48:28;;;;;;;1.20;1.10;;;;;;;-143.85;100.00;70650.75;5057699;28;20031;-80
2022/09/12 16:50:58;;;;;;;1.23;1.13;;;;;;;-143.85;100.00;70650.75;5058533;28;20029;-79
2022/09/12 16:53:24;;;;;;;2.15;1.40;;;;;;;-143.85;100.00;70650.75;5058496;28;20029;-80
2022/09/12 16:55:50;;;;;;;1.92;1.67;;;;;;;-143.85;100.00;70650.75;5076112;28;20486;-79
2022/09/12 16:58:15;;;;;;;1.95;1.75;;;;;;;-143.85;100.00;70650.75;5058022;28;20028;-79
2022/09/12 17:00:41;;;;;;;2.10;1.55;;;;;;;-143.85;100.00;70650.75;5058452;28;20028;-80
2022/09/12 17:03:07;;;;;;;1.70;1.60;;;;;;;-143.85;100.00;70650.75;5058478;28;20039;-77
2022/09/12 17:05:32;;;;;;;1.45;1.35;;;;;;;-143.85;100.00;70650.75;5058460;28;20064;-75
2022/09/12 17:07:57;;;;;;;2.47;1.95;;;;;;;-143.85;100.00;70650.75;5058386;28;20025;-75
2022/09/12 17:10:23;;;;;;;3.70;1.58;;;;;;;-143.85;100.00;70650.75;5058469;28;20032;-75
2022/09/12 17:12:49;;;;;;;1.63;1.50;;;;;;;-143.85;100.00;70650.75;5058442;28;20025;-75
2022/09/12 17:15:15;;;;;;;1.98;1.80;;;;;;;-143.85;100.00;70650.75;5058781;28;20408;-75
2022/09/12 17:17:40;;;;;;;1.15;1.05;;;;;;;-143.85;100.00;70650.75;5058274;28;20035;-75
2022/09/12 17:20:06;;;;;;;2.22;1.75;;;;;;;-143.85;100.00;70650.75;5058284;28;20029;-75
2022/09/12 17:22:32;;;;;;;1.60;1.50;;;;;;;-143.85;100.00;70650.75;5058350;28;20488;-75
2022/09/12 17:24:58;;;;;;;1.23;1.13;;;;;;;-143.85;100.00;70650.75;5058130;28;20119;-76
2022/09/12 17:27:23;;;;;;;1.90;1.80;;;;;;;-143.85;100.00;70650.75;5058060;28;20115;-76
2022/09/12 17:29:49;;;;;;;1.65;1.55;;;;;;;-143.85;100.00;70650.75;5058365;28;20128;-75
2022/09/12 17:32:15;;;;;;;2.83;2.22;;;;;;;-143.85;100.00;70650.75;5057961;28;20032;-75
2022/09/12 17:34:40;;;;;;;1.90;1.67;;;;;;;-143.85;100.00;70650.75;5057960;28;20036;-75
2022/09/12 17:37:06;;;;;;;7.43;1.80;;;;;;;-143.85;100.00;70650.75;5057931;28;20110;-74
2022/09/12 17:39:31;;;;;;;2.75;1.90;;;;;;;-143.85;100.00;70650.75;5058027;28;20050;-76
2022/09/12 17:41:58;;;;;;;1.83;1.73;;;;;;;-143.85;100.00;70650.75;5058005;28;20461;-74
2022/09/12 17:44:23;;;;;;;1.80;1.35;;;;;;;-143.85;100.00;70650.75;5057787;28;20028;-73
2022/09/12 17:46:49;;;;;;;1.98;1.77;;;;;;;-143.85;100.00;70650.75;5058012;28;20033;-74
2022/09/12 17:49:17;;;;;;;1.95;1.77;;;;;;;-143.85;100.00;70650.75;5057780;28;20385;-74
2022/09/12 17:51:43;;;;;;;2.60;1.60;;;;;;;-143.85;100.00;70650.75;5057613;28;20032;-74
2022/09/12 17:54:17;;;;;;;1.90;1.52;;;;;;;-143.85;100.00;70650.75;5058033;28;20028;-75
2022/09/12 17:56:47;;;;;;;1.77;1.35;;;;;;;-143.85;100.00;70650.75;5057600;28;20020;-75
2022/09/12 17:59:16;;;;;;;2.97;2.13;;;;;;;-143.85;100.00;70650.75;5057393;28;20032;-75
2022/09/12 18:04:26;;;;;;;1.88;1.63;;;;;;;-143.85;100.00;70650.75;5075866;28;20047;-74
2022/09/12 18:06:52;;;;;;;1.92;1.73;;;;;;;-143.85;100.00;70650.75;5057229;28;20415;-74
2022/09/12 18:09:20;;;;;;;1.65;1.25;;;;;;;-143.85;100.00;70650.75;5057267;28;20032;-75
2022/09/12 18:11:47;;;;;;;2.10;1.90;;;;;;;-143.85;100.00;70650.75;5057284;28;20025;-74
2022/09/12 18:14:13;;;;;;;6.45;2.25;;;;;;;-143.85;100.00;70650.75;5057353;28;20032;-74
2022/09/12 18:16:39;;;;;;;2.13;1.80;;;;;;;-143.85;100.00;70650.75;5057181;28;20021;-73
2022/09/12 18:19:04;;;;;;;2.00;1.80;;;;;;;-143.85;100.00;70650.75;5057204;28;20498;-74
2022/09/12 18:21:30;;;;;;;2.65;2.17;;;;;;;-143.85;100.00;70650.75;5057135;28;20031;-75
2022/09/12 18:23:58;;;;;;;2.47;2.05;;;;;;;-143.85;100.00;70650.75;5057108;28;20040;-74
2022/09/12 18:26:24;;;;;;;2.53;1.95;;;;;;;-143.85;100.00;70650.75;5056602;28;20127;-74
2022/09/12 18:28:49;;;;;;;3.22;2.42;;;;;;;-143.85;100.00;70650.75;5057128;28;20119;-74
2022/09/12 18:31:17;;;;;;;1.92;1.70;;;;;;;-143.85;100.00;70650.75;5057155;28;20498;-74
2022/09/12 18:33:43;;;;;;;1.92;1.67;;;;;;;-143.85;100.00;70650.75;5057043;28;20036;-73
2022/09/12 18:36:10;;;;;;;2.10;1.90;;;;;;;-143.85;100.00;70650.75;5057100;28;20416;-76
2022/09/12 18:38:37;;;;;;;2.65;1.70;;;;;;;-143.85;100.00;70650.75;5057284;28;20033;-74
2022/09/12 18:41:11;;;;;;;2.92;2.40;;;;;;;-143.85;100.00;70650.75;5056764;28;20492;-74
2022/09/12 18:43:37;;;;;;;2.45;2.08;;;;;;;-143.85;100.00;70650.75;5056675;28;20055;-74
2022/09/12 18:46:04;;;;;;;1.70;1.60;;;;;;;-143.85;100.00;70650.75;5056523;28;20082;-74
2022/09/12 18:48:31;;;;;;;2.03;1.42;;;;;;;-143.85;100.00;70650.75;5056863;28;20020;-74
2022/09/12 18:51:17;;;;;;;2.20;1.70;;;;;;;-143.85;100.00;70650.75;5056389;28;20036;-75
2022/09/12 18:53:48;;;;;;;1.85;1.65;;;;;;;-143.85;100.00;70650.75;5056456;28;20081;-75
2022/09/12 18:56:13;;;;;;;2.15;1.63;;;;;;;-143.85;100.00;70650.75;5056416;28;20411;-74
2022/09/12 18:58:42;;;;;;;2.58;1.98;;;;;;;-143.85;100.00;70650.75;5055927;28;20030;-74
2022/09/12 19:01:21;;;;;;;3.33;2.00;;;;;;;-143.85;100.00;70650.75;5056101;28;20034;-75
2022/09/12 19:03:48;;;;;;;2.78;1.95;;;;;;;-143.85;100.00;70650.75;5056626;28;20369;-74
2022/09/12 19:06:25;;;;;;;2.35;1.92;;;;;;;-143.85;100.00;70650.75;5056261;28;20035;-75
2022/09/12 19:08:51;;;;;;;2.70;2.08;;;;;;;-143.85;100.00;70650.75;5056305;28;20511;-75
2022/09/12 19:11:18;;;;;;;1.98;1.80;;;;;;;-143.85;100.00;70650.75;5055310;28;20119;-76
2022/09/12 19:13:46;;;;;;;1.70;1.60;;;;;;;-143.85;100.00;70650.75;5056178;28;20024;-75
2022/09/12 19:16:15;;;;;;;2.90;2.03;;;;;;;-143.85;100.00;70650.75;5056542;28;20031;-75
2022/09/12 19:18:41;;;;;;;1.90;1.80;;;;;;;-143.85;100.00;70650.75;5056496;28;20044;-75
2022/09/12 19:21:12;;;;;;;2.05;1.67;;;;;;;-143.85;100.00;70650.75;5056442;28;20038;-74
2022/09/12 19:23:38;;;;;;;2.20;1.95;;;;;;;-143.85;100.00;70650.75;5056722;28;20507;-74
2022/09/12 19:26:06;;;;;;;2.72;1.85;;;;;;;-143.85;100.00;70650.75;5056040;28;20048;-75
2022/09/12 19:28:33;;;;;;;2.50;2.15;;;;;;;-143.85;100.00;70650.75;5056060;28;20031;-75
2022/09/12 19:31:02;;;;;;;3.28;1.95;;;;;;;-143.85;100.00;70650.75;5056697;28;20126;-76
2022/09/12 19:33:28;;;;;;;1.67;1.58;;;;;;;-143.85;100.00;70650.75;5056954;28;20396;-75
2022/09/12 19:35:53;;;;;;;5.20;2.17;;;;;;;-143.85;100.00;70650.75;5055860;28;20036;-75
2022/09/12 19:38:19;;;;;;;3.83;2.67;;;;;;;-143.85;100.00;70650.75;5055693;28;20034;-75
2022/09/12 19:40:55;;;;;;;3.55;2.53;;;;;;;-143.85;100.00;70650.75;5056173;28;20108;-74
2022/09/12 19:43:21;;;;;;;2.50;2.22;;;;;;;-143.85;100.00;70650.75;5055737;28;20032;-74
2022/09/12 19:45:47;;;;;;;2.10;1.90;;;;;;;-143.85;100.00;70650.75;5055777;28;20081;-74
2022/09/12 19:48:12;;;;;;;3.20;2.22;;;;;;;-143.85;100.00;70650.75;5055734;28;20024;-75
2022/09/12 19:50:38;;;;;;;2.28;2.00;;;;;;;-143.85;100.00;70650.75;5055532;28;20545;-75
2022/09/12 19:53:03;;;;;;;2.42;2.22;;;;;;;-143.85;100.00;70650.75;5055717;28;20514;-74
2022/09/12 19:55:29;;;;;;;2.17;1.88;;;;;;;-143.85;100.00;70650.75;5055622;28;20125;-74
2022/09/12 19:57:54;;;;;;;2.20;1.85;;;;;;;-143.85;100.00;70650.75;5055549;28;20036;-75
2022/09/12 20:00:21;;;;;;;2.53;2.33;;;;;;;-143.85;100.00;70650.75;5055449;28;20484;-75
2022/09/12 20:02:52;;;;;;;2.83;2.00;;;;;;;-143.85;100.00;70650.75;5055678;28;20028;-74
2022/09/12 20:05:19;;;;;;;2.58;2.38;;;;;;;-143.85;100.00;70650.75;5055718;28;20122;-74